8.94C
переменная облачность
переменная облачность
Дата и времяТемператураДавление, мм рт.ст.Влажность, %Осадки
МинимумМаксимум
16.08.2022 23:008.94C9.07C75887небольшой дождь
17.08.2022 02:008.44C8.77C75989небольшой дождь
17.08.2022 05:006.95C7.61C75989небольшой дождь
17.08.2022 08:008.55C8.55C76183небольшой дождь
17.08.2022 11:0011.07C11.07C76160небольшой дождь
17.08.2022 14:0011.53C11.53C76258небольшой дождь
17.08.2022 17:0011.37C11.37C76255пасмурно
17.08.2022 20:008.48C8.48C76269пасмурно
17.08.2022 23:006.37C6.37C76290небольшой дождь
18.08.2022 02:006.35C6.35C76293небольшой дождь
18.08.2022 05:006.7C6.7C76394небольшой дождь
18.08.2022 08:008.06C8.06C76488пасмурно
18.08.2022 11:0010.7C10.7C76576пасмурно
18.08.2022 14:0013.33C13.33C76567пасмурно
18.08.2022 17:0013.33C13.33C76572пасмурно
18.08.2022 20:0010.5C10.5C76591небольшой дождь
18.08.2022 23:0010.94C10.94C76485небольшой дождь
19.08.2022 02:0011.16C11.16C76476пасмурно
19.08.2022 05:008.31C8.31C76583пасмурно
19.08.2022 08:0010.56C10.56C76571пасмурно
19.08.2022 11:0014.98C14.98C76551облачно с прояснениями
19.08.2022 14:0016.39C16.39C76540ясно
19.08.2022 17:0015.62C15.62C76543переменная облачность
19.08.2022 20:0010.12C10.12C76563переменная облачность
19.08.2022 23:008.51C8.51C76568облачно с прояснениями
20.08.2022 02:007.68C7.68C76569пасмурно
20.08.2022 05:006.8C6.8C76578облачно с прояснениями
20.08.2022 08:0013.02C13.02C76478облачно с прояснениями
20.08.2022 11:0013.74C13.74C76479облачно с прояснениями
20.08.2022 14:0014.92C14.92C76375пасмурно
20.08.2022 17:0011.87C11.87C76294небольшой дождь
20.08.2022 20:0011.82C11.82C76298небольшой дождь
20.08.2022 23:0012.34C12.34C76298пасмурно
21.08.2022 02:0010.43C10.43C76295пасмурно
21.08.2022 05:007.98C7.98C76292пасмурно
21.08.2022 08:007.7C7.7C76389пасмурно
21.08.2022 11:009.62C9.62C76476пасмурно
21.08.2022 14:0010.59C10.59C76568пасмурно
21.08.2022 17:0013.75C13.75C76549пасмурно
21.08.2022 20:008.15C8.15C76674небольшая облачность
Дата и время наблюдения: 16.08.2022 21:56:28